This site, now in its 15th season, is a labour of love and fun from one of Ottawa's most avid time trialists and number crunchers. It adheres to and is permitted by the laws of Canada, promotes the objectives of every bicycle club whose results are shown, and is donated free of charge by myself for your enjoyment and usage. If you would like results from series you ride in to be shown here, give me (celia@drmath.ca) a shout!


Index Page
ATT OTT WTT AATT CFCTT VVVTT
Help resultformat:
Case-sensitive

OBC Open TT Series - 2019-Jul-25 - 15km (Rockliffe Pkwy) (EvtFactor = 0.9585)

Ottawa Weather (18:00): Partly Cloudy. Temp.erature: 28.9C, Wind: W 14km/h, Humidex: 30, Relative humidity: 30%, Dew point: 10C, Pressure: 101.9kPa, Visibility: 24km.
Ottawa Weather (19:00): Partly Cloudy. Temp.erature: 27.4C, Wind: WSW 10km/h, Humidex: 30, Relative humidity: 41%, Dew point: 13C, Pressure: 101.9kPa, Visibility: 24km.
Ottawa Weather (20:00): Partly Cloudy. Temp.erature: 25.1C, Wind: WSW 8km/h, Humidex: 28, Relative humidity: 48%, Dew point: 14C, Pressure: 101.9kPa, Visibility: 24km.

Send photos with description (when/where/what) of yourself on or off of bike to celia@drmath.ca

 
 

BESTS?
 
1 Fillion, Aaron  OBC/RWR 18:44 48.043 1/53 VBM 1/11 0.9841
2 Sherboneau, Mark RWR 19:33 46.036 2/53 VBM 2/11 0.9180
3 St-Pierre, Martin RDO 19:45 45.570 3/53 VBM 3/11  
4 Rendall, Glen  RWR 19:59 45.038 4/53 VCM 1/10  
5 Diaz, Rodrigo  OBC/EUR 20:03 44.888 5/53 VBM 4/11 0.9802
6 Girard, Nicolas CDO 20:51 43.165 6/53 CAM 1/1 1.1015
7 Tsilemos, Jim RWR 21:01 42.823 7/53 VCM 2/10 0.9858
8 Graveline, Marc OBC 21:08 42.587 8/53 VCM 3/10 1.0432
9 Tregunno, Peter  OBC 21:22 42.122 9/53 VBM 5/11  
10 Lagueux, Frederic RPO 21:27 41.958 10/53 VBM 6/11 0.9700
11 Burge, Larry  OBC 21:39 41.570 11/53 VCM 4/10 1.0046
12 Mullington, Chris WQW 21:41 41.507 12/53 VDM 1/7 0.9772
13 Kincaid, Theodore IND 21:52 41.159 13/53 SEM 1/4 0.9977
14 Milette, Laury OBC 21:54 41.096 14/53 JUF 1/2 1.0700
15 Almeralla, Sergio WQW 21:55 41.065 15/53 VBM 7/11 1.0092
Beaulieu, Cédric OBC 21:55 41.065 15/53 JUM 1/2  
17 Campbell, Colin  OBC 22:06 40.724 17/53 VCM 5/10 0.9887
18 Beaulieu, Jean-Paul OBC 22:19 40.329 18/53 VCM 6/10 1.2595
19 Drouin, Marcel OBC 22:32 39.941 19/53 VCM 7/10 0.9867
20 Till, Michael WQW 22:38 39.764 20/53 VCM 8/10 0.8997
21 Budgell, Glen  OBC 22:43 39.618 21/53 VDM 2/7 0.9587
22 Boileau, Caroline NTF 22:44 39.589 22/53 VAF 1/1 0.9417
23 Rivoche, Michael WQW 22:58 39.187 23/53 VDM 3/7 0.9956
24 Kandoy, Meylina OBC 23:03 39.046 24/53 VCF 1/3 1.0131
25 Redshaw, Russ  OBC 23:06 38.961 25/53 VDM 4/7 0.9427
26 Woodford, Theodore OBC 23:09 38.877 26/53 JUM 2/2 0.9366
27 Posthuma, Hans  OBC 23:14 38.737 27/53 VDM 5/7 0.8922
28 Clark, Andrew OBC 23:19 38.599 28/53 SEM 2/4 1.0524
29 Basu, Ben  OBC 23:20 38.571 29/53 VCM 9/10  
Morvan, Jacques  OBC 23:20 38.571 29/53 VEM 1/4 0.9893
31 Corpuz, John OBC 23:27 38.380 31/53 VAM 1/2  
32 Déry, Nicolas  OBC 23:35 38.163 32/53 VBM 8/11 1.0584
33 Messier, Jill WQW 23:36 38.136 33/53 SEF 1/1 0.9297
34 Clarke, Shawn SRC/CYC 23:38 38.082 34/53 VAM 2/2 1.0781
35 Deschamps, Martin WQW 23:58 37.552 35/53 VBM 9/11 1.0444
36 Lavergne, Jazmine OBC 23:59 37.526 36/53 CAF 1/1 0.8535
37 Harvey Ridout, Fraser OBC 24:00 37.500 37/53 SEM 3/4 1.1417
38 Dorego, Jean-Louis OBC 24:04 37.396 38/53 VDM 6/7 1.0209
39 Gilchrist, Ryan  OBC 24:13 37.164 39/53 VCM 10/10 1.1744
40 Deavy, Carol  RPO 24:20 36.986 40/53 VCF 2/3 0.9515
41 Forget, Emilie OBC 24:48 36.290 41/53 JUF 2/2 1.0429
A 42 Burdett, Avery  OBC 24:59 36.024 42/53 VFM 1/1 1.0633
43 Boulanger, Gaetan  IND 25:13 35.691 43/53 VEM 2/4 0.8839
44 Moerman, Bram  OBC 25:21 35.503 44/53 VEM 3/4 1.0000
45 Veilleux, François OBC 25:34 35.202 45/53 VBM 10/11  
46 Imbrogno, Giorgio  OBC 25:44 34.974 46/53 VEM 4/4 0.9730
47 Revesz, Erika  OBC 25:52 34.794 47/53 VDF 1/3  
48 Shand, Peter OBC 25:58 34.660 48/53 VDM 7/7 0.9677
49 Levi, Cheryl OBC 26:17 34.242 49/53 VCF 3/3 0.9624
50 Fortier, Frederic OBC 26:18 34.221 50/53 VBM 11/11 0.9925
51 Schmidt, Matt OBC 27:10 33.129 51/53 SEM 4/4  
52 McInnis, Celia  OBC 27:24 32.847 52/53 VDF 2/3 0.9676
53 Drapeau, Blanche OBC 27:26 32.807 53/53 VDF 3/3 1.0202
 
Average Speed of all of the above 53 finishes (795km in 20:32:14):38.710
>>>Average of the Average Speeds for these 53 finishes39.009<<<
 

The number of data records shown above is 53
The server processing of your query took: 1 wallclock secs ( 0.08 usr + 0.00 sys = 0.08 CPU)

Thanks to our Helpers: Mark Manners, Alex McKnight, Gary Monette, Jess Raymond, Peter Tregunno

     


Apr 19 (Good Friday)
May 2 May 7 (10km) May 9 May 14 (10km) May 16 May 21 (10km) May 23 May 28 May 28 (10km) May 30
Jun 2 (40km) Jun 4 Jun 4 Jun 6 Jun 11 Jun 11 Jun 13 Jun 18 Jun 18 Jun 20 Jun 25 Jun 25 Jun 27 Jun 30 (40km)
Jul 2 Jul 2 Jul 4 Jul 9 Jul 9 Jul 11 (cancelled - lightning) Jul 16 Jul 16 Jul 18 Jul 23 Jul 23
  Jul 25  
Jul 28 (40km) Jul 30 Jul 30
Aug 1 Aug 6 Aug 6 Aug 8 Aug 13 Aug 13 Aug 15 Aug 20 Aug 20 Aug 22

OTT Rankings
Best       Best by category
WTT Rankings for All Participants
5 Best Speeds (≥3 15km, ≤1 10km)     5 Best Speeds (≥3 15km, ≤1 10km) by category
OTT Best Three 15km Rankings
Overall     by category     age-Hcap Female   age-Hcap Male
Other years
TT Calculator All TT People All TT events
ABC Home VVV Home
CKAP GOLD MEDAL
Other Links

Note: OTT data from 2003 through 2006-Apr-14 and 2007-Apr-06-? and WTT from 2008-? is taken from the official OBC site.

Please send your comments and suggestions to: Celia McInnis
Copyright © 1998-2011 Celia McInnis. All rights reserved. Links are welcomed.